Rakvere_vald, Eesti

11:44 EEST 22. Juuli 2017 (GMT +0300)
Ulemiste | | Change Station

Elev 128 ft 59.41 °N, 24.83 °E | Updated 24 minutes ago

Osaliselt pilves
Osaliselt pilves
64 °F
Feels Like 64 °F
Põhja
8
Tuul Muutliku suunaga Tuul from Loode

Täna
High -- | Low -- °F
--% Chance of Precip.
Eile
High -- | Low -- °F
Precip. -- tolli
Õhurõhk 30.09 tolli
Nähtavus 6.2 miili
Pilved Few 2000 ft
Kastepunkt 52 °F
Õhuniiskus 64%
Sademed 0.00 tolli
Lume paksus Not available.
4:36 AM 10:02 PM
Poolkuu (viimane veerand), 2% visible
METAR EETN 220820Z 32007KT 280V360 9999 FEW020 18/11 Q1019 NOSIG
Õhurõhk 30.09 tolli
Nähtavus 6.2 miili
Pilved Few 2000 ft
Kastepunkt 52 °F
Õhuniiskus 64%
Sademed 0.00 tolli
Lume paksus Not available.
4:36 AM 10:02 PM
Poolkuu (viimane veerand), 2% visible
METAR EETN 220820Z 32007KT 280V360 9999 FEW020 18/11 Q1019 NOSIG

Get Severe Weather Alerts

Thanks for signing up!

Be on the lookout for a verification email in your inbox.

You'll start receiving the daily forecast at 6 AM.

×

10-Day Weather Forecast

×

Almanac

Astronoomia

Jul. 22, 2017 Tõus Loojang
Tegelik aeg
Tsiviilne hämarik
Nautiline hämarik
Astronoomiline hämarik
Kuu
Nähtava valguse kestus
Päeva pikkus
Tomorrow will be .
, % of the Moon is Illuminated

Tänased ekstreemumid

Country Highs Country Lows

Community

WunderPhotos

Category 6

Welcome to Category 6. This is the collective home for Weather Underground's featured writeups by Dr. Jeff Masters (right), Bob Henson (left), Chris Burt, and other regular contributors.

Nearby

Õhukvaliteet

  Õhukvaliteet ÕK indeks Reostaja
Not available.

Lume paksus

Station Depth Kõrgus

Maavärinate aktiivsus

Linn Distance Mag. Time & Date
Minimum magnitude displayed is 2.5.

Coastal Water Temperatures

Koht Temperatuur

Stations

Nearby Weather Stations

Jaama asukoht Temp. Tuulekülm Kastepunkt Õhuniiskus Tuul Precip. Elev Uuendatud Tüüp